Jack Holland — WDF3615 — position and weather

sailwx.info

Track history (hours):
 
Tides and Currents Weather Stations Pressure Air Temp Water Temp Dewpoint Dewpoint Depression Visibility Wind Speed Wind Dir Waves Ship Positions

Jack Holland

Owner: Norfolk Tug Company, Norfolk, VA. More information available from US FCC via Universal Licensing System and Coast Guard Vessel Documentation Center.

Last reported at 2016-May-05 06:33 UTC. Time now 2016-May-05 06:44 UTC.
Position N 36°50' W 076°16'.

Length 22 m; draft 2.5 m.

Type: Tug. MMSI: 367442020.

Date/timePositionNaut miles runAvg speedWind from/ knotsBaromVisibWave heightAir tempDewpointWater temp
2016-May-05 06:33N 36°50' W 076°16'0 0.0
2016-May-05 05:33N 36°50' W 076°16'0 0.0
2016-May-05 04:33N 36°50' W 076°16'0 0.0
2016-May-05 03:33N 36°50' W 076°16'0 0.0
2016-May-05 02:33N 36°50' W 076°16'0 0.0
2016-May-05 01:33N 36°50' W 076°16'0 0.0
2016-May-05 00:33N 36°50' W 076°16'0 0.0
2016-May-04 23:33N 36°50' W 076°16'0 0.0
2016-May-04 22:33N 36°50' W 076°16'0 0.0
2016-May-04 21:33N 36°50' W 076°16'0 0.0
2016-May-04 20:28N 36°50' W 076°16'4 4.8
2016-May-04 19:33N 36°53' W 076°20'3 0.4
2016-May-04 12:20N 36°56' W 076°20'3 3.8
2016-May-04 11:34N 36°53' W 076°20'3 3.0
2016-May-04 10:33N 36°51' W 076°18'1 1.5
2016-May-04 09:34N 36°50' W 076°16'0 0.0
2016-May-04 08:34N 36°50' W 076°16'0 0.0
2016-May-04 07:34N 36°50' W 076°16'0 0.0
2016-May-04 06:33N 36°50' W 076°16'0 0.0
2016-May-04 05:33N 36°50' W 076°16'0 0.0
2016-May-04 04:33N 36°50' W 076°16'0 0.0
2016-May-04 03:34N 36°50' W 076°16'0 0.0
2016-May-04 02:34N 36°50' W 076°16'0 0.0
2016-May-04 01:31N 36°50' W 076°16'0 0.0
2016-May-04 00:33N 36°50' W 076°16'0 0.1
2016-May-03 23:34N 36°50' W 076°16'0 0.0
2016-May-03 22:22N 36°50' W 076°16'3 4.1
2016-May-03 21:33N 36°52' W 076°20'4 1.0
2016-May-03 17:33N 36°56' W 076°20'3 2.8
2016-May-03 16:33N 36°53' W 076°20'4 4.4
2016-May-03 15:33N 36°50' W 076°16'0 0.1
2016-May-03 13:27N 36°50' W 076°16'4 4.4
2016-May-03 12:30N 36°53' W 076°20'3 2.2
2016-May-03 11:06N 36°56' W 076°20'3 5.8
2016-May-03 10:34N 36°53' W 076°20'0 0.0
2016-May-03 09:34N 36°53' W 076°20'0 0.0
2016-May-03 08:33N 36°53' W 076°20'1 0.8
2016-May-03 07:33N 36°52' W 076°20'1 0.0
2016-May-01 22:03N 36°53' W 076°20'4 7.1
2016-May-01 21:34N 36°50' W 076°18'4 3.7
2016-May-01 20:34N 36°46' W 076°18'1 0.8
2016-May-01 19:33N 36°47' W 076°18'4 3.9
2016-May-01 18:33N 36°50' W 076°16'0 0.0
2016-May-01 17:34N 36°50' W 076°16'0 0.0
2016-May-01 16:34N 36°50' W 076°16'0 0.0
2016-May-01 15:33N 36°50' W 076°16'0 0.0
2016-May-01 14:33N 36°50' W 076°16'0 0.0
2016-May-01 13:33N 36°50' W 076°16'0 0.0
2016-May-01 12:33N 36°50' W 076°16'0 0.0
2016-May-01 11:31N 36°50' W 076°16'0 0.0
2016-May-01 10:33N 36°50' W 076°16'0 0.0
2016-May-01 09:33N 36°50' W 076°16'0 0.1
2016-May-01 08:34N 36°50' W 076°16'5 5.1
2016-May-01 07:32N 36°54' W 076°20'2 0.1
2016-Apr-29 17:04N 36°57' W 076°20'4 8.6
2016-Apr-29 16:33N 36°52' W 076°20'4 3.6
2016-Apr-29 15:33N 36°50' W 076°16'0 0.0
2016-Apr-29 14:34N 36°50' W 076°16'0 0.0
2016-Apr-29 13:33N 36°50' W 076°16'0 0.0
2016-Apr-29 12:33N 36°50' W 076°16'0 0.0
2016-Apr-29 11:33N 36°50' W 076°16'0 0.0
2016-Apr-29 10:34N 36°50' W 076°16'0 0.0
2016-Apr-29 09:33N 36°50' W 076°16'0 0.0
2016-Apr-29 08:34N 36°50' W 076°16'0 0.0
2016-Apr-29 07:33N 36°50' W 076°16'6 1.1
2016-Apr-29 01:32N 36°56' W 076°20'7 7.6
2016-Apr-29 00:34N 36°49' W 076°17'3 2.7
2016-Apr-28 23:34N 36°46' W 076°18'4 4.0
2016-Apr-28 22:33N 36°50' W 076°18'3 2.6
2016-Apr-28 21:33N 36°52' W 076°20'3 2.6
2016-Apr-28 20:34N 36°50' W 076°18'0 0.0
2016-Apr-28 19:33N 36°50' W 076°18'0 0.0
2016-Apr-28 18:34N 36°50' W 076°18'0 0.0
2016-Apr-28 17:34N 36°50' W 076°18'0 0.0
2016-Apr-28 16:33N 36°50' W 076°18'0 0.0
2016-Apr-28 15:34N 36°50' W 076°18'0 0.0
2016-Apr-28 14:33N 36°50' W 076°18'0 0.0
2016-Apr-28 13:34N 36°50' W 076°18'2 1.7
2016-Apr-28 12:34N 36°52' W 076°19'2 1.9
2016-Apr-28 11:34N 36°53' W 076°20'4 4.4
2016-Apr-28 10:34N 36°50' W 076°16'2 1.8
2016-Apr-28 09:34N 36°49' W 076°17'3 2.7
2016-Apr-28 08:34N 36°46' W 076°18'4 4.5
2016-Apr-28 07:34N 36°50' W 076°17'1 0.1
2016-Apr-28 00:27N 36°50' W 076°16'0 0.0
2016-Apr-27 23:23N 36°50' W 076°16'0 0.0
2016-Apr-27 20:20N 36°50' W 076°16'1 0.6
2016-Apr-27 18:33N 36°50' W 076°18'4 4.1
2016-Apr-27 17:33N 36°46' W 076°18'0 0.4
2016-Apr-27 16:34N 36°47' W 076°18'2 2.4
2016-Apr-27 15:33N 36°49' W 076°17'0 0.1
2016-Apr-27 14:33N 36°49' W 076°17'2 1.6
2016-Apr-27 13:34N 36°51' W 076°18'5 0.1
2016-Apr-25 23:18N 36°56' W 076°20'6 7.7
2016-Apr-25 22:33N 36°50' W 076°17'1 1.4
2016-Apr-25 21:33N 36°51' W 076°18'5 0.6
2016-Apr-25 14:18N 36°56' W 076°20'2 2.6
2016-Apr-25 13:32N 36°54' W 076°20'2 2.3
2016-Apr-25 12:30N 36°56' W 076°20'6 2.8
2016-Apr-25 10:34N 36°51' W 076°18'1 1.4
2016-Apr-25 09:32N 36°50' W 076°16'0 0.0
2016-Apr-25 08:33N 36°50' W 076°16'0 0.0
2016-Apr-25 07:33N 36°50' W 076°16'  
Track history (hours):
 
Tides and Currents Weather Stations Pressure Air Temp Water Temp Dewpoint Dewpoint Depression Visibility Wind Speed Wind Dir Waves Ship Positions

Jack Holland

Owner: Norfolk Tug Company, Norfolk, VA. More information available from US FCC via Universal Licensing System and Coast Guard Vessel Documentation Center.

Last reported at 2016-May-05 06:33 UTC. Time now 2016-May-05 06:44 UTC.
Position N 36°50' W 076°16'.

Length 22 m; draft 2.5 m.

Type: Tug. MMSI: 367442020.

Date/timePositionNaut miles runAvg speedWind from/ knotsBaromVisibWave heightAir tempDewpointWater temp
2016-May-05 06:33N 36°50' W 076°16'0 0.0
2016-May-05 05:33N 36°50' W 076°16'0 0.0
2016-May-05 04:33N 36°50' W 076°16'0 0.0
2016-May-05 03:33N 36°50' W 076°16'0 0.0
2016-May-05 02:33N 36°50' W 076°16'0 0.0
2016-May-05 01:33N 36°50' W 076°16'0 0.0
2016-May-05 00:33N 36°50' W 076°16'0 0.0
2016-May-04 23:33N 36°50' W 076°16'0 0.0
2016-May-04 22:33N 36°50' W 076°16'0 0.0
2016-May-04 21:33N 36°50' W 076°16'0 0.0
2016-May-04 20:28N 36°50' W 076°16'4 4.8
2016-May-04 19:33N 36°53' W 076°20'3 0.4
2016-May-04 12:20N 36°56' W 076°20'3 3.8
2016-May-04 11:34N 36°53' W 076°20'3 3.0
2016-May-04 10:33N 36°51' W 076°18'1 1.5
2016-May-04 09:34N 36°50' W 076°16'0 0.0
2016-May-04 08:34N 36°50' W 076°16'0 0.0
2016-May-04 07:34N 36°50' W 076°16'0 0.0
2016-May-04 06:33N 36°50' W 076°16'0 0.0
2016-May-04 05:33N 36°50' W 076°16'0 0.0
2016-May-04 04:33N 36°50' W 076°16'0 0.0
2016-May-04 03:34N 36°50' W 076°16'0 0.0
2016-May-04 02:34N 36°50' W 076°16'0 0.0
2016-May-04 01:31N 36°50' W 076°16'0 0.0
2016-May-04 00:33N 36°50' W 076°16'0 0.1
2016-May-03 23:34N 36°50' W 076°16'0 0.0
2016-May-03 22:22N 36°50' W 076°16'3 4.1
2016-May-03 21:33N 36°52' W 076°20'4 1.0
2016-May-03 17:33N 36°56' W 076°20'3 2.8
2016-May-03 16:33N 36°53' W 076°20'4 4.4
2016-May-03 15:33N 36°50' W 076°16'0 0.1
2016-May-03 13:27N 36°50' W 076°16'4 4.4
2016-May-03 12:30N 36°53' W 076°20'3 2.2
2016-May-03 11:06N 36°56' W 076°20'3 5.8
2016-May-03 10:34N 36°53' W 076°20'0 0.0
2016-May-03 09:34N 36°53' W 076°20'0 0.0
2016-May-03 08:33N 36°53' W 076°20'1 0.8
2016-May-03 07:33N 36°52' W 076°20'1 0.0
2016-May-01 22:03N 36°53' W 076°20'4 7.1
2016-May-01 21:34N 36°50' W 076°18'4 3.7
2016-May-01 20:34N 36°46' W 076°18'1 0.8
2016-May-01 19:33N 36°47' W 076°18'4 3.9
2016-May-01 18:33N 36°50' W 076°16'0 0.0
2016-May-01 17:34N 36°50' W 076°16'0 0.0
2016-May-01 16:34N 36°50' W 076°16'0 0.0
2016-May-01 15:33N 36°50' W 076°16'0 0.0
2016-May-01 14:33N 36°50' W 076°16'0 0.0
2016-May-01 13:33N 36°50' W 076°16'0 0.0
2016-May-01 12:33N 36°50' W 076°16'0 0.0
2016-May-01 11:31N 36°50' W 076°16'0 0.0
2016-May-01 10:33N 36°50' W 076°16'0 0.0
2016-May-01 09:33N 36°50' W 076°16'0 0.1
2016-May-01 08:34N 36°50' W 076°16'5 5.1
2016-May-01 07:32N 36°54' W 076°20'2 0.1
2016-Apr-29 17:04N 36°57' W 076°20'4 8.6
2016-Apr-29 16:33N 36°52' W 076°20'4 3.6
2016-Apr-29 15:33N 36°50' W 076°16'0 0.0
2016-Apr-29 14:34N 36°50' W 076°16'0 0.0
2016-Apr-29 13:33N 36°50' W 076°16'0 0.0
2016-Apr-29 12:33N 36°50' W 076°16'0 0.0
2016-Apr-29 11:33N 36°50' W 076°16'0 0.0
2016-Apr-29 10:34N 36°50' W 076°16'0 0.0
2016-Apr-29 09:33N 36°50' W 076°16'0 0.0
2016-Apr-29 08:34N 36°50' W 076°16'0 0.0
2016-Apr-29 07:33N 36°50' W 076°16'6 1.1
2016-Apr-29 01:32N 36°56' W 076°20'7 7.6
2016-Apr-29 00:34N 36°49' W 076°17'3 2.7
2016-Apr-28 23:34N 36°46' W 076°18'4 4.0
2016-Apr-28 22:33N 36°50' W 076°18'3 2.6
2016-Apr-28 21:33N 36°52' W 076°20'3 2.6
2016-Apr-28 20:34N 36°50' W 076°18'0 0.0
2016-Apr-28 19:33N 36°50' W 076°18'0 0.0
2016-Apr-28 18:34N 36°50' W 076°18'0 0.0
2016-Apr-28 17:34N 36°50' W 076°18'0 0.0
2016-Apr-28 16:33N 36°50' W 076°18'0 0.0
2016-Apr-28 15:34N 36°50' W 076°18'0 0.0
2016-Apr-28 14:33N 36°50' W 076°18'0 0.0
2016-Apr-28 13:34N 36°50' W 076°18'2 1.7
2016-Apr-28 12:34N 36°52' W 076°19'2 1.9
2016-Apr-28 11:34N 36°53' W 076°20'4 4.4
2016-Apr-28 10:34N 36°50' W 076°16'2 1.8
2016-Apr-28 09:34N 36°49' W 076°17'3 2.7
2016-Apr-28 08:34N 36°46' W 076°18'4 4.5
2016-Apr-28 07:34N 36°50' W 076°17'1 0.1
2016-Apr-28 00:27N 36°50' W 076°16'0 0.0
2016-Apr-27 23:23N 36°50' W 076°16'0 0.0
2016-Apr-27 20:20N 36°50' W 076°16'1 0.6
2016-Apr-27 18:33N 36°50' W 076°18'4 4.1
2016-Apr-27 17:33N 36°46' W 076°18'0 0.4
2016-Apr-27 16:34N 36°47' W 076°18'2 2.4
2016-Apr-27 15:33N 36°49' W 076°17'0 0.1
2016-Apr-27 14:33N 36°49' W 076°17'2 1.6
2016-Apr-27 13:34N 36°51' W 076°18'5 0.1
2016-Apr-25 23:18N 36°56' W 076°20'6 7.7
2016-Apr-25 22:33N 36°50' W 076°17'1 1.4
2016-Apr-25 21:33N 36°51' W 076°18'5 0.6
2016-Apr-25 14:18N 36°56' W 076°20'2 2.6
2016-Apr-25 13:32N 36°54' W 076°20'2 2.3
2016-Apr-25 12:30N 36°56' W 076°20'6 2.8
2016-Apr-25 10:34N 36°51' W 076°18'1 1.4
2016-Apr-25 09:32N 36°50' W 076°16'0 0.0
2016-Apr-25 08:33N 36°50' W 076°16'0 0.0
2016-Apr-25 07:33N 36°50' W 076°16'  

Dump ship's entire track history